Time;durP1;ratioP1;P1;durP2;ratioP2;P2;SDS_P1;SDS_P2;PMS_P1;PMS_P2;Temp;Humidity;BMP_temperature;BMP_pressure;BME280_temperature;BME280_humidity;BME280_pressure;Samples;Min_cycle;Max_cycle;Signal;HPM_P1;HPM_P2
2021/03/04 00:01:19;;;;;;;87.10;43.15;;;8.90;97.20;;;;;;4803187;29;20050;-73
2021/03/04 00:03:45;;;;;;;104.13;45.05;;;9.10;97.20;;;;;;4803128;29;20062;-73
2021/03/04 00:06:11;;;;;;;108.85;47.40;;;9.00;97.20;;;;;;4803051;29;20063;-73
2021/03/04 00:08:36;;;;;;;96.35;43.80;;;8.80;97.60;;;;;;4801974;29;20470;-73
2021/03/04 00:11:02;;;;;;;88.20;39.92;;;8.80;97.80;;;;;;4804690;29;20031;-75
2021/03/04 00:13:27;;;;;;;88.90;40.95;;;9.00;97.50;;;;;;4802138;29;20043;-74
2021/03/04 00:15:54;;;;;;;92.78;41.08;;;8.90;97.60;;;;;;4803050;29;20122;-74
2021/03/04 00:18:19;;;;;;;82.80;39.90;;;8.60;97.70;;;;;;4802728;29;20637;-75
2021/03/04 00:20:45;;;;;;;82.00;38.90;;;8.70;97.70;;;;;;4803078;29;20039;-75
2021/03/04 00:23:11;;;;;;;83.63;39.92;;;8.60;97.60;;;;;;4804306;29;20031;-74
2021/03/04 00:25:36;;;;;;;82.97;41.83;;;8.60;97.70;;;;;;4803112;29;20118;-74
2021/03/04 00:28:03;;;;;;;83.90;39.78;;;8.60;97.70;;;;;;4802887;29;20145;-73
2021/03/04 00:30:29;;;;;;;87.95;39.83;;;8.30;98.10;;;;;;4787112;29;20078;-73
2021/03/04 00:32:55;;;;;;;87.57;39.42;;;8.60;98.00;;;;;;4802806;29;20497;-75
2021/03/04 00:35:21;;;;;;;87.35;39.92;;;8.60;97.60;;;;;;4802188;29;20446;-74
2021/03/04 00:37:47;;;;;;;85.05;40.70;;;8.70;97.50;;;;;;4788119;29;20030;-73
2021/03/04 00:40:15;;;;;;;95.53;40.65;;;8.50;97.40;;;;;;4801867;29;20038;-75
2021/03/04 00:42:41;;;;;;;100.88;42.42;;;8.50;97.70;;;;;;4802624;29;20046;-75
2021/03/04 00:45:12;;;;;;;100.43;42.25;;;8.50;97.70;;;;;;4802417;29;20042;-74
2021/03/04 00:47:38;;;;;;;93.65;42.33;;;8.50;97.80;;;;;;4802552;29;20050;-74
2021/03/04 00:50:06;;;;;;;98.57;42.58;;;8.50;97.80;;;;;;4803947;29;20095;-74
2021/03/04 00:52:31;;;;;;;97.63;43.40;;;8.50;97.60;;;;;;4802355;29;20054;-74
2021/03/04 00:54:57;;;;;;;95.45;42.42;;;8.40;97.70;;;;;;4786497;29;20050;-74
2021/03/04 00:57:23;;;;;;;95.03;41.15;;;8.30;97.60;;;;;;4802804;29;20039;-74
2021/03/04 00:59:49;;;;;;;99.82;42.85;;;8.30;97.60;;;;;;4802255;29;20126;-74
2021/03/04 01:02:15;;;;;;;94.90;40.03;;;8.30;97.60;;;;;;4803584;29;20027;-74
2021/03/04 01:04:40;;;;;;;97.75;43.17;;;8.30;97.60;;;;;;4802250;29;20050;-74
2021/03/04 01:07:06;;;;;;;121.95;47.17;;;8.60;97.40;;;;;;4802201;29;20042;-74
2021/03/04 01:09:31;;;;;;;123.57;48.60;;;8.50;97.10;;;;;;4802279;29;20063;-74
2021/03/04 01:11:57;;;;;;;128.15;49.60;;;8.60;97.10;;;;;;4802265;29;20096;-74
2021/03/04 01:14:23;;;;;;;117.80;47.65;;;8.50;97.20;;;;;;4786119;29;20095;-74
2021/03/04 01:16:48;;;;;;;108.15;44.75;;;8.60;97.10;;;;;;4802786;29;20034;-73
2021/03/04 01:19:14;;;;;;;103.75;44.03;;;8.40;97.40;;;;;;4802075;29;20115;-75
2021/03/04 01:21:40;;;;;;;107.20;44.47;;;8.30;97.50;;;;;;4802408;29;20143;-75
2021/03/04 01:24:06;;;;;;;100.60;42.78;;;8.30;97.60;;;;;;4800750;29;20031;-74
2021/03/04 01:26:32;;;;;;;86.97;39.85;;;8.40;97.60;;;;;;4802814;29;20434;-75
2021/03/04 01:28:57;;;;;;;93.60;41.63;;;8.20;97.60;;;;;;4803723;29;20180;-75
2021/03/04 01:31:23;;;;;;;93.97;41.22;;;8.20;97.60;;;;;;4804815;29;20115;-75
2021/03/04 01:33:48;;;;;;;94.60;43.15;;;8.10;97.70;;;;;;4805648;29;20382;-74
2021/03/04 01:36:15;;;;;;;97.63;42.15;;;7.80;98.00;;;;;;4805621;29;20035;-74
2021/03/04 01:38:40;;;;;;;90.18;39.80;;;7.90;97.90;;;;;;4805633;29;20030;-75
2021/03/04 01:41:06;;;;;;;96.82;42.83;;;8.00;97.80;;;;;;4807212;29;20041;-74
2021/03/04 01:43:31;;;;;;;110.88;45.03;;;7.90;97.70;;;;;;4805586;29;20075;-73
2021/03/04 01:45:57;;;;;;;102.95;44.13;;;7.90;97.80;;;;;;4805604;29;20126;-74
2021/03/04 01:48:23;;;;;;;107.60;45.42;;;7.90;97.70;;;;;;4805255;29;20115;-74
2021/03/04 01:50:49;;;;;;;106.50;44.00;;;7.90;97.70;;;;;;4805621;29;20038;-75
2021/03/04 01:53:15;;;;;;;102.95;42.35;;;7.80;97.60;;;;;;4806102;29;20070;-75
2021/03/04 01:55:40;;;;;;;105.55;45.35;;;7.80;97.70;;;;;;4804588;29;20066;-75
2021/03/04 01:58:06;;;;;;;102.30;43.95;;;7.90;97.50;;;;;;4805640;29;20474;-74
2021/03/04 02:00:32;;;;;;;114.50;46.00;;;7.90;97.40;;;;;;4805203;29;20035;-74
2021/03/04 02:02:57;;;;;;;115.22;44.72;;;7.80;97.40;;;;;;4805073;29;20111;-74
2021/03/04 02:05:24;;;;;;;116.13;47.28;;;7.60;97.50;;;;;;4805296;29;20033;-74
2021/03/04 02:08:18;;;;;;;117.32;47.15;;;7.70;97.60;;;;;;4806746;29;20087;-74
2021/03/04 02:10:51;;;;;;;114.38;46.17;;;7.60;97.60;;;;;;4805213;29;20478;-74
2021/03/04 02:13:36;;;;;;;117.97;46.75;;;7.60;97.60;;;;;;4789182;29;20039;-75
2021/03/04 02:16:13;;;;;;;115.22;44.30;;;7.80;97.70;;;;;;4805006;29;20719;-74
2021/03/04 02:18:52;;;;;;;113.00;44.70;;;7.90;97.60;;;;;;4788985;29;20054;-74
2021/03/04 02:21:24;;;;;;;110.63;43.97;;;8.10;97.40;;;;;;4788648;29;20114;-75
2021/03/04 02:24:14;;;;;;;103.72;43.13;;;8.10;97.20;;;;;;4804729;29;20108;-75
2021/03/04 02:26:57;;;;;;;113.00;44.00;;;8.10;97.10;;;;;;4788850;29;20046;-73
2021/03/04 02:29:24;;;;;;;102.78;41.67;;;8.00;97.00;;;;;;4804766;29;20070;-73
2021/03/04 02:31:53;;;;;;;96.03;43.10;;;8.10;97.10;;;;;;4806525;29;20030;-74
2021/03/04 02:34:22;;;;;;;101.10;42.85;;;8.10;96.90;;;;;;4804869;29;20058;-74
2021/03/04 02:36:49;;;;;;;107.80;42.70;;;8.00;97.00;;;;;;4819535;29;20054;-75
2021/03/04 02:39:17;;;;;;;113.28;45.00;;;8.00;97.00;;;;;;4806793;29;20046;-74
2021/03/04 02:41:44;;;;;;;105.25;43.08;;;7.80;97.10;;;;;;4822344;29;20038;-74
2021/03/04 02:44:10;;;;;;;106.57;43.28;;;7.90;97.20;;;;;;4824135;29;20022;-73
2021/03/04 02:46:38;;;;;;;101.70;40.97;;;7.90;97.00;;;;;;4822567;29;20127;-73
2021/03/04 02:49:06;;;;;;;108.38;43.45;;;7.90;96.90;;;;;;4822338;29;20040;-73
2021/03/04 02:51:34;;;;;;;109.88;42.53;;;7.90;96.90;;;;;;4822465;29;20134;-74
2021/03/04 02:54:00;;;;;;;;;;;7.80;97.00;;;;;;4823018;29;20043;-75
2021/03/04 02:56:26;;;;;;;109.65;41.58;;;7.90;96.90;;;;;;4822534;29;19956;-74
2021/03/04 02:58:54;;;;;;;119.07;44.75;;;7.80;97.20;;;;;;4823822;29;20046;-74
2021/03/04 03:01:21;;;;;;;105.95;40.97;;;7.80;96.90;;;;;;4822540;29;20131;-73
2021/03/04 03:03:48;;;;;;;113.88;42.90;;;7.60;96.90;;;;;;4822239;29;20046;-74
2021/03/04 03:06:18;;;;;;;119.25;45.15;;;7.60;97.00;;;;;;4822160;29;20518;-75
2021/03/04 03:08:46;;;;;;;121.72;43.05;;;7.50;96.90;;;;;;4822180;29;20119;-74
2021/03/04 03:11:14;;;;;;;107.85;42.38;;;7.60;97.00;;;;;;4823587;29;20468;-74
2021/03/04 03:13:42;;;;;;;115.72;43.15;;;7.40;97.10;;;;;;4822061;29;20038;-74
2021/03/04 03:16:08;;;;;;;108.53;42.47;;;7.40;97.10;;;;;;4822203;29;20046;-74
2021/03/04 03:18:33;;;;;;;119.95;43.38;;;7.40;97.20;;;;;;4822021;29;20061;-73
2021/03/04 03:20:59;;;;;;;112.65;42.33;;;7.50;97.00;;;;;;4805582;29;20297;-73
2021/03/04 03:23:25;;;;;;;109.25;42.80;;;7.50;96.90;;;;;;4822077;29;20042;-74
2021/03/04 03:25:50;;;;;;;112.10;42.28;;;7.50;97.00;;;;;;4823497;29;20024;-74
2021/03/04 03:28:16;;;;;;;117.60;42.90;;;7.20;97.30;;;;;;4805423;29;20047;-74
2021/03/04 03:30:41;;;;;;;119.18;43.92;;;7.30;97.30;;;;;;4821881;29;20057;-74
2021/03/04 03:33:11;;;;;;;108.32;42.47;;;7.40;97.20;;;;;;4821899;29;20039;-74
2021/03/04 03:35:38;;;;;;;108.75;40.72;;;7.40;97.00;;;;;;4821999;29;20019;-74
2021/03/04 03:38:05;;;;;;;104.93;40.65;;;7.50;96.90;;;;;;4807514;29;20038;-74
2021/03/04 03:40:41;;;;;;;108.65;40.70;;;7.40;97.00;;;;;;4821970;29;20034;-75
2021/03/04 03:43:09;;;;;;;118.15;43.58;;;7.40;97.00;;;;;;4821940;29;20046;-74
2021/03/04 03:45:37;;;;;;;;;;;7.00;97.40;;;;;;4822219;29;20068;-73
2021/03/04 03:48:07;;;;;;;110.72;39.65;;;7.20;97.40;;;;;;4821734;29;19985;-74
2021/03/04 03:50:33;;;;;;;110.20;43.20;;;7.20;97.30;;;;;;4821440;29;20022;-74
2021/03/04 03:53:01;;;;;;;111.32;42.00;;;7.10;97.30;;;;;;4822499;29;20037;-74
2021/03/04 03:55:28;;;;;;;113.63;42.33;;;7.00;97.50;;;;;;4821458;29;20046;-74
2021/03/04 03:57:55;;;;;;;116.90;42.22;;;6.70;97.80;;;;;;4805467;29;20481;-74
2021/03/04 04:00:25;;;;;;;112.32;40.13;;;6.80;97.90;;;;;;4821625;29;20057;-74
2021/03/04 04:03:11;;;;;;;112.30;43.22;;;6.80;97.80;;;;;;4801884;29;20043;-73
2021/03/04 04:05:37;;;;;;;115.28;42.80;;;6.90;97.60;;;;;;4803073;29;20472;-75
2021/03/04 04:08:04;;;;;;;118.53;43.42;;;6.80;97.50;;;;;;4804606;29;20522;-75
2021/03/04 04:10:35;;;;;;;116.82;43.40;;;7.00;97.50;;;;;;4802076;29;20035;-74
2021/03/04 04:13:01;;;;;;;109.57;40.20;;;6.70;97.60;;;;;;4803253;29;20043;-74
2021/03/04 04:15:29;;;;;;;108.30;39.90;;;6.70;97.60;;;;;;4803463;29;20042;-75
2021/03/04 04:18:00;;;;;;;112.60;40.08;;;6.50;97.80;;;;;;4803185;29;20038;-75
2021/03/04 04:20:26;;;;;;;122.50;42.55;;;6.50;97.80;;;;;;4802681;29;20039;-75
2021/03/04 04:22:54;;;;;;;120.38;41.92;;;6.50;98.00;;;;;;4804424;29;20047;-74
2021/03/04 04:25:25;;;;;;;113.30;40.30;;;6.40;97.90;;;;;;4802721;29;20046;-75
2021/03/04 04:27:52;;;;;;;116.07;40.63;;;6.50;98.00;;;;;;4803054;29;20517;-74
2021/03/04 04:30:19;;;;;;;117.80;41.00;;;6.40;97.90;;;;;;4802722;29;20061;-74
2021/03/04 04:32:45;;;;;;;101.18;38.40;;;6.50;97.80;;;;;;4802900;29;20301;-74
2021/03/04 04:35:13;;;;;;;104.32;39.08;;;6.60;97.80;;;;;;4804132;29;20421;-75
2021/03/04 04:37:39;;;;;;;109.50;38.20;;;6.40;97.90;;;;;;4801664;29;20137;-74
2021/03/04 04:40:06;;;;;;;96.60;36.90;;;6.80;97.80;;;;;;4801746;29;20133;-74
2021/03/04 04:42:32;;;;;;;110.50;37.58;;;6.90;97.50;;;;;;4802444;29;20051;-74
2021/03/04 04:44:57;;;;;;;124.80;40.00;;;6.90;97.50;;;;;;4802443;29;20058;-73
2021/03/04 04:47:23;;;;;;;113.28;39.28;;;6.80;97.60;;;;;;4802638;29;20031;-76
2021/03/04 04:49:49;;;;;;;104.68;37.15;;;6.80;97.70;;;;;;4803916;29;20499;-74
2021/03/04 04:52:14;;;;;;;104.22;37.05;;;6.90;97.50;;;;;;4802286;29;20039;-74
2021/03/04 04:54:40;;;;;;;111.18;38.92;;;6.90;97.40;;;;;;4802369;29;20130;-75
2021/03/04 04:57:07;;;;;;;100.57;38.05;;;6.80;97.50;;;;;;4802145;29;20041;-74
2021/03/04 04:59:32;;;;;;;103.80;37.28;;;6.90;97.60;;;;;;4802302;29;20058;-75
2021/03/04 05:01:58;;;;;;;108.07;39.10;;;6.90;97.60;;;;;;4802909;29;20077;-75
2021/03/04 05:04:24;;;;;;;104.70;38.88;;;6.90;97.60;;;;;;4818735;29;20111;-76
2021/03/04 05:06:49;;;;;;;103.32;36.88;;;6.80;97.70;;;;;;4804546;29;20046;-75
2021/03/04 05:09:15;;;;;;;107.10;36.50;;;6.90;97.70;;;;;;4820523;29;20058;-75
2021/03/04 05:11:41;;;;;;;111.32;37.13;;;6.80;97.80;;;;;;4820469;29;20177;-75
2021/03/04 05:14:06;;;;;;;119.10;39.92;;;7.00;97.70;;;;;;4822264;29;20480;-76
2021/03/04 05:16:32;;;;;;;107.63;38.75;;;6.90;97.80;;;;;;4820390;29;20555;-75
2021/03/04 05:18:57;;;;;;;116.18;38.15;;;6.90;97.80;;;;;;4804309;29;20054;-74
2021/03/04 05:21:23;;;;;;;99.97;38.03;;;6.90;97.90;;;;;;4820578;29;20050;-76
2021/03/04 05:23:49;;;;;;;110.70;37.42;;;7.00;98.10;;;;;;4820736;29;20026;-75
2021/03/04 05:26:14;;;;;;;119.35;39.67;;;6.90;97.60;;;;;;4821905;29;20109;-74
2021/03/04 05:28:40;;;;;;;115.53;39.30;;;6.90;97.70;;;;;;4820111;29;20038;-75
2021/03/04 05:31:06;;;;;;;118.68;38.47;;;7.00;97.80;;;;;;4820136;29;20076;-75
2021/03/04 05:33:31;;;;;;;111.18;39.13;;;6.80;97.80;;;;;;4820643;29;20106;-74
2021/03/04 05:35:57;;;;;;;103.13;35.83;;;6.70;97.60;;;;;;4820207;29;20038;-75
2021/03/04 05:38:22;;;;;;;109.25;39.05;;;6.60;97.80;;;;;;4804258;29;20030;-75
2021/03/04 05:40:48;;;;;;;108.22;38.10;;;6.50;97.90;;;;;;4822066;29;20033;-75
2021/03/04 05:43:14;;;;;;;109.45;37.50;;;6.70;97.80;;;;;;4820329;29;20454;-74
2021/03/04 05:45:41;;;;;;;109.68;38.03;;;6.70;97.70;;;;;;4819959;29;20035;-75
2021/03/04 05:48:09;;;;;;;115.93;37.83;;;6.80;97.80;;;;;;4820333;29;20116;-76
2021/03/04 05:50:37;;;;;;;117.32;37.55;;;6.70;97.60;;;;;;4820376;29;20041;-75
2021/03/04 05:53:12;;;;;;;104.85;36.38;;;6.70;97.60;;;;;;4821546;29;20054;-74
2021/03/04 05:55:39;;;;;;;113.18;38.47;;;6.80;97.60;;;;;;4820221;29;20133;-75
2021/03/04 05:58:05;;;;;;;129.15;40.25;;;6.80;97.50;;;;;;4820060;29;20497;-75
2021/03/04 06:00:32;;;;;;;118.43;38.60;;;6.60;97.50;;;;;;4819955;29;20440;-74
2021/03/04 06:02:58;;;;;;;108.85;37.35;;;6.70;97.70;;;;;;4819669;29;20035;-74
2021/03/04 06:05:24;;;;;;;105.03;35.72;;;6.70;97.60;;;;;;4819744;29;20446;-75
2021/03/04 06:07:49;;;;;;;116.97;36.13;;;6.60;97.80;;;;;;4821603;29;20262;-75
2021/03/04 06:10:16;;;;;;;115.70;37.58;;;6.60;97.80;;;;;;4820013;29;20462;-75
2021/03/04 06:12:42;;;;;;;115.60;34.90;;;6.50;98.00;;;;;;4803846;29;20042;-74
2021/03/04 06:15:10;;;;;;;124.63;35.28;;;6.60;98.00;;;;;;4820080;29;20047;-76
2021/03/04 06:17:35;;;;;;;106.38;35.45;;;6.60;97.90;;;;;;4806313;29;20030;-74
2021/03/04 06:20:05;;;;;;;107.07;33.72;;;6.50;98.00;;;;;;4825806;29;20022;-78
2021/03/04 06:22:45;;;;;;;110.05;32.92;;;6.50;98.00;;;;;;4824229;29;20473;-75
2021/03/04 06:25:11;;;;;;;105.60;32.03;;;6.50;98.00;;;;;;4807972;29;20046;-74
2021/03/04 06:27:42;;;;;;;106.05;32.72;;;6.50;98.10;;;;;;4805418;29;20481;-74
2021/03/04 06:30:15;;;;;;;99.88;33.00;;;6.60;98.10;;;;;;4805685;29;20046;-74
2021/03/04 06:33:03;;;;;;;111.47;33.85;;;6.60;97.80;;;;;;4789415;29;20454;-75
2021/03/04 06:35:37;;;;;;;103.60;32.30;;;6.50;97.80;;;;;;4790633;29;20319;-75
2021/03/04 06:38:21;;;;;;;109.03;33.22;;;6.50;97.90;;;;;;4806328;29;20129;-75
2021/03/04 06:40:48;;;;;;;104.55;28.35;;;6.70;98.00;;;;;;4806697;29;20073;-76
2021/03/04 06:43:19;;;;;;;85.43;27.80;;;6.50;97.60;;;;;;4790946;29;20035;-77
2021/03/04 06:45:45;;;;;;;76.72;26.75;;;6.50;97.70;;;;;;4806968;29;20271;-75
2021/03/04 06:48:16;;;;;;;78.65;26.58;;;6.30;97.70;;;;;;4806282;29;20458;-76
2021/03/04 06:50:49;;;;;;;89.50;26.23;;;6.40;98.00;;;;;;4804801;29;20138;-75
2021/03/04 06:53:19;;;;;;;84.05;26.35;;;6.30;98.10;;;;;;4807085;29;20022;-76
2021/03/04 06:56:05;;;;;;;82.75;26.70;;;6.20;97.90;;;;;;4803648;29;20486;-76
2021/03/04 06:58:57;;;;;;;82.45;27.38;;;6.10;98.00;;;;;;4788977;29;20096;-74
2021/03/04 07:01:24;;;;;;;93.22;27.95;;;6.30;98.00;;;;;;4804257;29;20103;-74
2021/03/04 07:03:51;;;;;;;101.68;30.67;;;6.40;97.90;;;;;;4803366;29;20047;-75
2021/03/04 07:06:19;;;;;;;101.57;30.42;;;6.50;97.70;;;;;;4804989;29;20497;-75
2021/03/04 07:08:46;;;;;;;75.05;25.83;;;6.50;97.50;;;;;;4788949;29;20063;-76
2021/03/04 07:11:16;;;;;;;82.07;28.15;;;6.60;97.50;;;;;;4806452;29;20100;-74
2021/03/04 07:13:43;;;;;;;76.00;25.00;;;6.60;97.50;;;;;;4789202;29;20141;-75
2021/03/04 07:16:19;;;;;;;73.75;25.17;;;6.60;97.40;;;;;;4804613;29;20038;-75
2021/03/04 07:18:53;;;;;;;76.38;25.63;;;6.60;97.30;;;;;;4804509;29;20035;-75
2021/03/04 07:21:19;;;;;;;89.15;26.15;;;6.60;97.20;;;;;;4804606;29;20441;-75
2021/03/04 07:23:46;;;;;;;78.15;26.25;;;6.50;97.40;;;;;;4804763;29;20034;-75
2021/03/04 07:26:13;;;;;;;68.70;23.05;;;6.50;97.50;;;;;;4806740;29;20216;-75
2021/03/04 07:28:40;;;;;;;57.27;21.93;;;6.60;97.50;;;;;;4787617;29;20420;-75
2021/03/04 07:31:07;;;;;;;62.73;20.50;;;6.50;97.30;;;;;;4804698;29;20274;-78
2021/03/04 07:33:35;;;;;;;59.13;20.70;;;6.50;97.40;;;;;;4812409;29;20278;-74
2021/03/04 07:36:09;;;;;;;65.60;19.75;;;6.50;97.30;;;;;;4822302;29;20042;-75
2021/03/04 07:38:36;;;;;;;63.55;18.92;;;6.50;97.20;;;;;;4822627;29;20429;-76
2021/03/04 07:41:13;;;;;;;55.38;18.98;;;6.50;97.20;;;;;;4824647;29;20125;-76
2021/03/04 07:43:50;;;;;;;43.30;15.80;;;6.50;97.20;;;;;;4822712;29;20062;-76
2021/03/04 07:46:39;;;;;;;52.00;17.50;;;6.40;97.20;;;;;;4805531;29;20070;-76
2021/03/04 07:49:07;;;;;;;61.00;19.52;;;6.30;97.40;;;;;;4821501;29;20088;-78
2021/03/04 07:51:48;;;;;;;;;;;6.30;97.40;;;;;;4822316;29;20051;-75
2021/03/04 07:54:15;;;;;;;63.95;19.45;;;6.20;97.30;;;;;;4821985;29;19913;-77
2021/03/04 07:56:42;;;;;;;60.83;20.85;;;6.30;97.80;;;;;;4821741;29;20102;-76
2021/03/04 07:59:12;;;;;;;56.42;18.50;;;6.30;97.70;;;;;;4822955;29;20038;-77
2021/03/04 08:01:40;;;;;;;51.58;18.15;;;6.20;97.50;;;;;;4805215;29;20042;-76
2021/03/04 08:04:06;;;;;;;57.08;18.35;;;6.00;97.80;;;;;;4821319;29;20363;-75
2021/03/04 08:06:42;;;;;;;56.60;16.95;;;6.00;97.80;;;;;;4821597;29;20507;-76
2021/03/04 08:09:08;;;;;;;48.45;16.90;;;6.10;97.90;;;;;;4821265;29;20056;-76
2021/03/04 08:11:35;;;;;;;62.90;20.70;;;6.30;97.60;;;;;;4805315;29;20042;-75
2021/03/04 08:14:13;;;;;;;64.03;20.30;;;6.30;97.50;;;;;;4823032;29;20454;-76
2021/03/04 08:16:39;;;;;;;58.80;19.45;;;6.40;97.70;;;;;;4821475;29;20061;-76
2021/03/04 08:19:05;;;;;;;64.18;20.35;;;6.20;97.90;;;;;;4821332;29;20461;-76
2021/03/04 08:21:31;;;;;;;55.33;18.08;;;6.30;97.80;;;;;;4821334;29;20035;-76
2021/03/04 08:23:57;;;;;;;48.47;18.90;;;6.30;97.80;;;;;;4821050;29;20083;-76
2021/03/04 08:26:28;;;;;;;52.33;18.63;;;6.20;97.60;;;;;;4821017;29;20034;-76
2021/03/04 08:29:10;;;;;;;59.05;19.80;;;6.30;97.80;;;;;;4822424;29;20573;-76
2021/03/04 08:31:43;;;;;;;60.28;19.45;;;6.20;97.90;;;;;;4804694;29;20043;-76
2021/03/04 08:34:08;;;;;;;65.18;20.73;;;6.20;98.00;;;;;;4821118;29;20142;-76
2021/03/04 08:36:53;;;;;;;49.08;18.00;;;6.20;98.00;;;;;;4805264;29;20482;-76
2021/03/04 08:39:22;;;;;;;49.78;18.08;;;6.40;97.90;;;;;;4820837;29;20035;-76
2021/03/04 08:41:48;;;;;;;51.88;18.15;;;6.40;97.70;;;;;;4820211;29;20098;-76
2021/03/04 08:44:18;;;;;;;55.88;19.42;;;6.50;97.60;;;;;;4822281;29;20113;-75
2021/03/04 08:46:48;;;;;;;48.33;17.42;;;6.60;97.40;;;;;;4804678;29;20034;-77
2021/03/04 08:49:21;;;;;;;49.15;16.98;;;6.60;97.20;;;;;;4820554;29;20061;-76
2021/03/04 08:51:48;;;;;;;43.28;16.35;;;6.60;97.10;;;;;;4820704;29;20038;-74
2021/03/04 08:54:22;;;;;;;52.63;17.40;;;6.40;97.10;;;;;;4820708;29;20706;-76
2021/03/04 08:56:52;;;;;;;47.17;17.55;;;6.20;97.30;;;;;;4804506;29;20377;-75
2021/03/04 08:59:27;;;;;;;35.80;14.60;;;6.20;97.40;;;;;;4803945;29;20034;-74
2021/03/04 09:02:00;;;;;;;41.10;14.57;;;6.40;97.10;;;;;;4805956;29;20052;-76
2021/03/04 09:04:27;;;;;;;45.58;15.60;;;6.40;97.10;;;;;;4820265;29;20122;-76
2021/03/04 09:06:53;;;;;;;39.72;14.95;;;6.60;97.10;;;;;;4804345;29;20065;-76
2021/03/04 09:09:27;;;;;;;42.35;14.82;;;6.60;97.00;;;;;;4820267;29;20043;-76
2021/03/04 09:11:54;;;;;;;43.95;15.82;;;6.50;97.00;;;;;;4820267;29;20607;-76
2021/03/04 09:14:27;;;;;;;48.72;16.20;;;6.50;97.20;;;;;;4820348;29;20042;-76
2021/03/04 09:16:53;;;;;;;37.38;14.70;;;6.50;97.20;;;;;;4822212;29;20042;-76
2021/03/04 09:19:35;;;;;;;52.55;18.58;;;6.50;97.30;;;;;;4804383;29;20053;-75
2021/03/04 09:22:07;;;;;;;46.17;17.15;;;6.60;97.20;;;;;;4803721;29;20122;-76
2021/03/04 09:24:34;;;;;;;44.75;16.20;;;6.70;97.20;;;;;;4820149;29;20304;-76
2021/03/04 09:27:07;;;;;;;49.75;17.20;;;6.70;97.10;;;;;;4820581;29;20134;-75
2021/03/04 09:29:37;;;;;;;58.30;19.00;;;6.70;97.20;;;;;;4820125;29;20461;-75
2021/03/04 09:32:02;;;;;;;54.38;19.02;;;6.50;97.40;;;;;;4821689;29;20076;-76
2021/03/04 09:34:40;;;;;;;70.15;22.35;;;6.50;97.50;;;;;;4820428;29;20093;-75
2021/03/04 09:37:14;;;;;;;74.18;23.30;;;6.50;97.50;;;;;;4820151;29;20034;-75
2021/03/04 09:39:46;;;;;;;69.45;22.90;;;6.60;97.60;;;;;;4820318;29;20034;-76
2021/03/04 09:42:18;;;;;;;53.33;18.02;;;6.70;97.50;;;;;;4819852;29;20114;-75
2021/03/04 09:44:51;;;;;;;58.95;19.50;;;6.60;97.70;;;;;;4820056;29;20038;-76
2021/03/04 09:47:25;;;;;;;56.03;18.38;;;6.70;97.80;;;;;;4805330;29;20027;-76
2021/03/04 09:49:52;;;;;;;52.80;18.88;;;6.80;98.00;;;;;;4804325;29;20081;-75
2021/03/04 09:52:31;;;;;;;55.72;19.17;;;6.80;98.00;;;;;;4806688;29;20061;-76
2021/03/04 09:55:17;;;;;;;43.58;16.15;;;6.90;98.00;;;;;;4807495;29;20111;-77
2021/03/04 09:57:45;;;;;;;45.15;16.02;;;6.90;98.10;;;;;;4823174;29;20043;-75
2021/03/04 10:00:18;;;;;;;;;;;6.90;98.20;;;;;;4823879;29;20049;-75
2021/03/04 10:02:48;;;;;;;37.17;13.98;;;6.90;98.20;;;;;;4822895;29;19925;-75
2021/03/04 10:05:25;;;;;;;41.58;14.00;;;6.90;98.00;;;;;;4824213;29;20105;-76
2021/03/04 10:07:56;;;;;;;36.25;14.60;;;6.90;97.80;;;;;;4806446;29;20137;-76
2021/03/04 10:10:22;;;;;;;29.92;13.23;;;6.90;97.70;;;;;;4822335;29;20103;-75
2021/03/04 10:12:56;;;;;;;38.92;14.10;;;7.00;97.60;;;;;;4805941;29;20038;-77
2021/03/04 10:15:29;;;;;;;33.90;13.38;;;7.00;97.50;;;;;;4805819;29;20046;-75
2021/03/04 10:17:56;;;;;;;37.35;14.73;;;7.00;97.50;;;;;;4821829;29;20045;-75
2021/03/04 10:20:23;;;;;;;34.10;12.82;;;7.00;97.50;;;;;;4821927;29;20091;-77
2021/03/04 10:22:50;;;;;;;36.22;13.73;;;7.00;97.50;;;;;;4807615;29;20034;-76
2021/03/04 10:25:16;;;;;;;38.33;14.57;;;6.70;97.60;;;;;;4822129;29;20073;-76
2021/03/04 10:27:42;;;;;;;39.92;13.63;;;6.50;97.90;;;;;;4822313;29;20045;-75
2021/03/04 10:30:11;;;;;;;35.53;13.55;;;6.70;98.20;;;;;;4822024;29;20530;-75
2021/03/04 10:32:37;;;;;;;36.38;13.70;;;6.90;97.90;;;;;;4821987;29;20034;-75
2021/03/04 10:35:11;;;;;;;40.47;13.57;;;6.90;97.80;;;;;;4807372;29;20445;-75
2021/03/04 10:37:37;;;;;;;40.65;14.30;;;6.90;97.80;;;;;;4821752;29;20042;-75
2021/03/04 10:40:05;;;;;;;44.33;14.88;;;6.70;98.00;;;;;;4805635;29;20050;-76
2021/03/04 10:42:31;;;;;;;51.38;17.17;;;6.80;97.90;;;;;;4821727;29;20098;-75
2021/03/04 10:44:59;;;;;;;50.13;17.98;;;6.80;98.00;;;;;;4821381;29;20125;-75
2021/03/04 10:47:25;;;;;;;;;;;6.80;98.00;;;;;;4821844;29;20057;-76
2021/03/04 10:49:51;;;;;;;47.30;15.90;;;6.90;98.10;;;;;;4823132;29;19947;-75
2021/03/04 10:52:17;;;;;;;47.35;16.50;;;6.80;98.20;;;;;;4805144;29;20074;-74
2021/03/04 10:54:42;;;;;;;37.15;14.13;;;6.80;98.30;;;;;;4821488;29;20072;-75
2021/03/04 10:57:08;;;;;;;37.47;13.77;;;6.90;97.90;;;;;;4821394;29;20236;-77
2021/03/04 10:59:33;;;;;;;35.65;12.82;;;6.70;97.60;;;;;;4821587;29;20465;-74
2021/03/04 11:01:59;;;;;;;33.63;12.23;;;6.70;97.50;;;;;;4822982;29;20338;-75
2021/03/04 11:04:24;;;;;;;34.42;11.70;;;6.80;97.30;;;;;;4804327;29;529598;-74
2021/03/04 11:06:50;;;;;;;34.35;12.27;;;6.70;97.30;;;;;;4822171;29;20068;-75
2021/03/04 11:09:16;;;;;;;41.92;12.82;;;6.70;97.30;;;;;;4822467;29;20042;-75
2021/03/04 11:11:41;;;;;;;34.00;12.50;;;6.80;97.40;;;;;;4822395;29;20046;-76
2021/03/04 11:14:07;;;;;;;35.63;12.70;;;6.60;97.60;;;;;;4823732;29;20026;-74
2021/03/04 11:16:32;;;;;;;34.15;13.35;;;6.80;97.80;;;;;;4822417;29;20168;-75
2021/03/04 11:18:58;;;;;;;33.42;11.88;;;6.90;97.40;;;;;;4822082;29;20043;-73
2021/03/04 11:21:23;;;;;;;30.95;10.95;;;6.80;97.30;;;;;;4822010;29;20476;-77
2021/03/04 11:23:49;;;;;;;26.40;10.98;;;6.90;97.20;;;;;;4821698;29;20115;-76
2021/03/04 11:26:15;;;;;;;31.58;11.35;;;6.90;97.00;;;;;;4823501;29;20034;-75
2021/03/04 11:28:40;;;;;;;37.22;12.18;;;6.80;97.00;;;;;;4821764;29;20129;-75
2021/03/04 11:31:06;;;;;;;30.52;10.07;;;6.60;97.30;;;;;;4822069;29;20038;-74
2021/03/04 11:33:32;;;;;;;31.50;12.55;;;6.80;97.30;;;;;;4821988;29;20065;-76
2021/03/04 11:35:57;;;;;;;32.92;11.13;;;6.90;97.20;;;;;;4821972;29;20043;-75
2021/03/04 11:38:23;;;;;;;34.08;12.07;;;6.80;97.30;;;;;;4805707;29;20033;-75
2021/03/04 11:40:49;;;;;;;36.65;12.63;;;6.90;97.50;;;;;;4823114;29;20390;-75
2021/03/04 11:43:14;;;;;;;37.50;12.93;;;6.90;97.50;;;;;;4821623;29;20038;-74
2021/03/04 11:45:40;;;;;;;33.80;11.73;;;7.00;97.50;;;;;;4821751;29;20477;-76
2021/03/04 11:48:06;;;;;;;29.38;11.55;;;6.90;97.60;;;;;;4805577;29;20095;-75
2021/03/04 11:50:32;;;;;;;32.38;12.68;;;6.90;97.40;;;;;;4821720;29;20030;-81
2021/03/04 11:52:58;;;;;;;32.30;12.30;;;6.80;97.40;;;;;;4807038;29;20119;-81
2021/03/04 11:55:23;;;;;;;35.72;12.07;;;7.00;97.70;;;;;;4821603;29;20038;-78
2021/03/04 11:57:49;;;;;;;27.83;11.93;;;7.00;97.50;;;;;;4821357;29;20130;-77
2021/03/04 12:00:15;;;;;;;32.72;12.38;;;6.80;97.20;;;;;;4821705;29;20064;-76
2021/03/04 12:02:40;;;;;;;27.83;10.88;;;6.70;97.30;;;;;;4821294;29;20078;-76
2021/03/04 12:05:07;;;;;;;25.50;10.98;;;6.70;97.60;;;;;;4823301;29;20114;-75
2021/03/04 12:07:32;;;;;;;29.85;10.57;;;6.70;97.60;;;;;;4820849;29;20042;-76
2021/03/04 12:09:58;;;;;;;37.22;11.75;;;6.60;97.20;;;;;;4821351;29;20048;-76
2021/03/04 12:12:25;;;;;;;26.95;10.02;;;6.70;97.30;;;;;;4821356;29;20034;-75
2021/03/04 12:14:51;;;;;;;22.75;9.43;;;6.90;97.20;;;;;;4820791;29;20038;-76
2021/03/04 12:17:16;;;;;;;28.45;10.63;;;6.90;97.00;;;;;;4822856;29;20040;-76
2021/03/04 12:19:42;;;;;;;25.52;10.07;;;6.90;97.00;;;;;;4805262;29;20046;-76
2021/03/04 12:22:08;;;;;;;30.00;10.40;;;6.90;97.00;;;;;;4821510;29;20510;-75
2021/03/04 12:24:33;;;;;;;31.50;9.52;;;7.00;96.80;;;;;;4821066;29;20046;-75
2021/03/04 12:26:59;;;;;;;32.05;11.18;;;7.00;96.70;;;;;;4820974;29;20063;-74
2021/03/04 12:29:25;;;;;;;26.25;10.18;;;6.90;96.90;;;;;;4820937;29;20034;-76
2021/03/04 12:31:50;;;;;;;34.47;13.27;;;7.00;96.90;;;;;;4822724;29;20490;-76
2021/03/04 12:34:16;;;;;;;34.40;13.13;;;6.80;96.90;;;;;;4820844;29;20039;-76
2021/03/04 12:36:45;;;;;;;33.25;12.48;;;6.60;97.20;;;;;;4820980;29;20533;-76
2021/03/04 12:39:12;;;;;;;39.95;12.68;;;6.40;97.60;;;;;;4804901;29;20110;-76